Wednesday, August 24, 2016, 6:07 AM EDT
Back to Local

KCXY, Harrisburg Capital City

Location: New Cumberland, PA, United States Lat: 40.217
Local Time: 6:07 AM EDT (10:07 GMT) Lon: -76.85
Time Zone: US/Eastern Elev: 347 ft

Show me the last for .
Show Decoded

2016-08-24 04:56 METAR KCXY 240856Z AUTO 00000KT 10SM CLR 17/15 A3027 RMK AO2 SLP251 T01720150
                 55002 =
2016-08-24 03:56 METAR KCXY 240756Z AUTO 00000KT 10SM CLR 17/16 A3027 RMK AO2 SLP250 T01720156 =
2016-08-24 02:56 METAR KCXY 240656Z AUTO 24003KT 10SM CLR 18/16 A3027 RMK AO2 SLP251 T01780156 =
2016-08-24 01:56 METAR KCXY 240556Z AUTO 00000KT 10SM CLR 18/16 A3028 RMK AO2 SLP253 T01830156
                 10244 20178 50001 =
2016-08-24 00:56 METAR KCXY 240456Z AUTO 00000KT 10SM CLR 19/16 A3029 RMK AO2 SLP257 T01890156
                 402890139 =
2016-08-23 23:56 METAR KCXY 240356Z AUTO 00000KT 10SM CLR 19/16 A3029 RMK AO2 SLP256 T01890161 =
2016-08-23 22:56 METAR KCXY 240256Z AUTO 00000KT 10SM CLR 20/16 A3028 RMK AO2 SLP253 T02000156
                 53010 =
2016-08-23 21:56 METAR KCXY 240156Z AUTO 00000KT 10SM CLR 21/16 A3027 RMK AO2 SLP250 T02110156 =
2016-08-23 20:56 METAR KCXY 240056Z 00000KT 10SM CLR 23/16 A3026 RMK AO2 SLP245 T02280156 =
2016-08-23 19:56 METAR KCXY 232356Z 00000KT 10SM CLR 24/16 A3025 RMK AO2 SLP242 T02440161 10289
                 20244 55005 =
2016-08-23 18:56 METAR KCXY 232256Z 18005KT 10SM CLR 27/14 A3024 RMK AO2 SLP240 T02670139 =
2016-08-23 17:56 METAR KCXY 232156Z 19004KT 10SM FEW065 28/14 A3026 RMK AO2 SLP245 T02780139 =
2016-08-23 16:56 METAR KCXY 232056Z 27004KT 10SM FEW060 27/13 A3026 RMK AO2 SLP247 T02670133
                 56017 =
2016-08-23 15:56 METAR KCXY 231956Z 26005KT 10SM SCT060 27/13 A3027 RMK AO2 SLP251 T02720128 =
2016-08-23 14:56 METAR KCXY 231856Z 10SM SCT060 28/12 A3029 RMK AO2 SLP257 T02830117 =
2016-08-23 13:56 METAR KCXY 231756Z VRB03KT 10SM SCT063 27/13 A3031 RMK AO2 SLP264 T02720128
                 10278 20172 56012 =
2016-08-23 12:56 METAR KCXY 231656Z VRB03KT 10SM CLR 27/13 A3032 RMK AO2 SLP267 T02670128 =
2016-08-23 11:56 METAR KCXY 231556Z 24007KT 10SM CLR 26/12 A3033 RMK AO2 SLP271 T02560117 =
2016-08-23 10:56 METAR KCXY 231456Z 26005KT 10SM CLR 24/13 A3035 RMK AO2 SLP276 T02440128 50000 =
2016-08-23 09:56 METAR KCXY 231356Z 00000KT 10SM CLR 22/13 A3035 RMK AO2 SLP277 T02220133 =
2016-08-23 08:56 METAR KCXY 231256Z 00000KT 10SM CLR 20/14 A3035 RMK AO2 SLP277 T02000139 =
2016-08-23 07:56 METAR KCXY 231156Z 00000KT 10SM CLR 17/14 A3035 RMK AO2 SLP276 T01720139 10172
                 20139 51017 =
2016-08-23 06:56 METAR KCXY 231056Z 00000KT 10SM CLR 14/12 A3033 RMK AO2 SLP271 T01440122 =

Support USWX by starting your Amazon purchase here.